createdAt,value
2018-01-17T00:00:41.167Z,3.50
2018-01-17T00:03:08.702Z,3.50
2018-01-17T00:05:37.970Z,3.50
2018-01-17T00:08:05.514Z,3.50
2018-01-17T00:10:33.848Z,3.40
2018-01-17T00:13:01.394Z,3.40
2018-01-17T00:15:29.838Z,3.40
2018-01-17T00:17:58.768Z,3.40
2018-01-17T00:20:29.094Z,3.40
2018-01-17T00:22:58.508Z,3.50
2018-01-17T00:25:26.949Z,3.40
2018-01-17T00:27:54.942Z,3.40
2018-01-17T00:30:22.515Z,3.40
2018-01-17T00:32:50.391Z,3.40
2018-01-17T00:35:18.015Z,3.40
2018-01-17T00:37:45.577Z,3.50
2018-01-17T00:40:13.107Z,3.40
2018-01-17T00:42:40.650Z,3.40
2018-01-17T00:45:08.177Z,3.40
2018-01-17T00:47:35.780Z,3.40
2018-01-17T00:50:03.634Z,3.50
2018-01-17T00:52:32.009Z,3.50
2018-01-17T00:55:01.548Z,3.50
2018-01-17T00:57:30.189Z,3.50
2018-01-17T00:59:58.555Z,3.50
2018-01-17T01:02:26.151Z,3.50
2018-01-17T01:04:53.738Z,3.60
2018-01-17T01:07:21.320Z,3.50
2018-01-17T01:09:48.929Z,3.50
2018-01-17T01:12:16.547Z,3.60
2018-01-17T01:14:44.954Z,3.60
2018-01-17T01:17:12.504Z,3.60
2018-01-17T01:19:40.301Z,3.70
2018-01-17T01:22:07.843Z,3.70
2018-01-17T01:24:35.392Z,3.60
2018-01-17T01:27:03.882Z,3.70
2018-01-17T01:29:31.441Z,3.70
2018-01-17T01:31:59.153Z,3.70
2018-01-17T01:34:26.729Z,3.60
2018-01-17T01:36:55.040Z,3.60
2018-01-17T01:39:22.623Z,3.60
2018-01-17T01:41:50.886Z,3.60
2018-01-17T01:44:19.275Z,3.60
2018-01-17T01:46:46.794Z,3.70
2018-01-17T01:49:16.025Z,3.70
2018-01-17T01:51:44.399Z,3.70
2018-01-17T01:54:12.044Z,3.70
2018-01-17T01:56:40.512Z,3.70
2018-01-17T01:59:08.052Z,3.70
2018-01-17T02:01:36.361Z,3.70
2018-01-17T02:04:03.970Z,3.70
2018-01-17T02:06:32.320Z,3.70
2018-01-17T02:09:00.291Z,3.70
2018-01-17T02:11:27.849Z,3.70
2018-01-17T02:13:55.712Z,3.70
2018-01-17T02:16:23.315Z,3.70
2018-01-17T02:18:51.644Z,3.70
2018-01-17T02:21:19.198Z,3.70
2018-01-17T02:23:46.749Z,3.70
2018-01-17T02:26:14.341Z,3.70
2018-01-17T02:28:42.822Z,3.80
2018-01-17T02:31:15.988Z,3.70
2018-01-17T02:33:44.373Z,3.70
2018-01-17T02:36:11.944Z,3.70
2018-01-17T02:38:40.243Z,3.70
2018-01-17T02:41:08.637Z,3.70
2018-01-17T02:43:36.963Z,3.70
2018-01-17T02:46:05.436Z,3.70
2018-01-17T02:48:32.990Z,3.70
2018-01-17T02:51:00.544Z,3.70
2018-01-17T02:53:28.140Z,3.60
2018-01-17T02:55:55.757Z,3.60
2018-01-17T02:58:23.333Z,3.60
2018-01-17T03:00:50.855Z,3.60
2018-01-17T03:03:18.411Z,3.50
2018-01-17T03:05:45.955Z,3.60
2018-01-17T03:08:14.270Z,3.60
2018-01-17T03:10:42.434Z,3.60
2018-01-17T03:13:10.004Z,3.50
2018-01-17T03:15:37.558Z,3.50
2018-01-17T03:18:05.158Z,3.50
2018-01-17T03:20:33.469Z,3.40
2018-01-17T03:23:01.037Z,3.40
2018-01-17T03:25:28.676Z,3.40
2018-01-17T03:27:56.222Z,3.40
2018-01-17T03:30:23.787Z,3.30
2018-01-17T03:32:51.381Z,3.30
2018-01-17T03:35:18.988Z,3.30
2018-01-17T03:37:46.567Z,3.30
2018-01-17T03:40:14.125Z,3.30
2018-01-17T03:42:42.479Z,3.40
2018-01-17T03:45:09.991Z,3.40
2018-01-17T03:47:37.542Z,3.30
2018-01-17T03:50:06.640Z,3.20
2018-01-17T03:52:34.915Z,3.10
2018-01-17T03:55:02.485Z,3.00
2018-01-17T03:57:30.077Z,2.90
2018-01-17T04:00:00.320Z,2.90
2018-01-17T04:02:28.641Z,2.90
2018-01-17T04:04:56.188Z,2.90
2018-01-17T04:07:23.717Z,2.90
2018-01-17T04:09:51.278Z,2.90
2018-01-17T04:12:18.835Z,3.00
2018-01-17T04:14:46.495Z,3.00
2018-01-17T04:17:14.038Z,3.00
2018-01-17T04:19:43.121Z,3.00
2018-01-17T04:22:10.657Z,3.00
2018-01-17T04:24:38.236Z,3.00
2018-01-17T04:27:05.869Z,2.90
2018-01-17T04:29:33.458Z,3.00
2018-01-17T04:32:02.267Z,3.00
2018-01-17T04:34:30.383Z,2.90
2018-01-17T04:36:58.007Z,2.90
2018-01-17T04:39:25.567Z,2.90
2018-01-17T04:41:53.116Z,2.90
2018-01-17T04:44:20.670Z,2.90
2018-01-17T04:46:48.957Z,2.90
2018-01-17T04:49:16.533Z,2.90
2018-01-17T04:51:44.604Z,2.90
2018-01-17T04:54:12.145Z,2.90
2018-01-17T04:56:39.691Z,3.00
2018-01-17T04:59:07.306Z,3.00
2018-01-17T05:01:34.936Z,3.00
2018-01-17T05:04:02.511Z,3.00
2018-01-17T05:06:30.102Z,3.00
2018-01-17T05:09:04.742Z,3.00
2018-01-17T05:11:32.807Z,2.70
2018-01-17T05:14:01.314Z,2.30
2018-01-17T05:16:29.069Z,1.90
2018-01-17T05:18:56.640Z,1.80
2018-01-17T05:21:27.808Z,1.60
2018-01-17T05:23:55.484Z,1.30
2018-01-17T05:26:26.449Z,1.20
2018-01-17T05:28:54.873Z,1.30
2018-01-17T05:31:22.433Z,1.30
2018-01-17T05:36:49.667Z,1.30
2018-01-17T05:39:17.995Z,1.50
2018-01-17T05:41:45.528Z,1.40
2018-01-17T05:44:13.824Z,1.50
2018-01-17T05:46:42.131Z,1.50
2018-01-17T05:49:12.328Z,1.50
2018-01-17T05:51:40.724Z,1.50
2018-01-17T05:54:08.372Z,1.60
2018-01-17T05:56:36.282Z,1.60
2018-01-17T05:59:05.191Z,1.60
2018-01-17T06:01:32.866Z,1.60
2018-01-17T06:04:00.608Z,1.50
2018-01-17T06:06:29.349Z,1.50
2018-01-17T06:08:57.380Z,1.50
2018-01-17T06:11:26.912Z,1.60
2018-01-17T06:13:56.222Z,1.60
2018-01-17T06:16:24.202Z,1.70
2018-01-17T06:18:51.975Z,1.70
2018-01-17T06:21:22.949Z,1.80
2018-01-17T06:23:50.698Z,1.90
2018-01-17T06:26:18.403Z,1.90
2018-01-17T06:28:47.936Z,1.90
2018-01-17T06:31:16.807Z,1.90
2018-01-17T06:33:45.513Z,2.00
2018-01-17T06:36:13.510Z,2.00
2018-01-17T06:38:41.460Z,2.00
2018-01-17T06:41:12.104Z,2.00
2018-01-17T06:43:39.782Z,1.90
2018-01-17T06:46:08.434Z,1.70
2018-01-17T06:48:35.987Z,1.60
2018-01-17T06:51:03.606Z,1.40
2018-01-17T06:53:31.144Z,1.30
2018-01-17T06:55:58.702Z,1.20
2018-01-17T06:58:26.195Z,1.30
2018-01-17T07:00:53.730Z,1.20
2018-01-17T07:03:21.991Z,1.20
2018-01-17T07:05:49.498Z,1.20
2018-01-17T07:08:16.994Z,1.10
2018-01-17T07:10:45.280Z,1.20
2018-01-17T07:13:12.817Z,1.20
2018-01-17T07:15:40.343Z,1.20
2018-01-17T07:18:07.843Z,1.30
2018-01-17T07:20:35.370Z,1.20
2018-01-17T07:23:02.897Z,1.20
2018-01-17T07:25:31.154Z,1.20
2018-01-17T07:27:58.650Z,1.20
2018-01-17T07:30:26.176Z,1.30
2018-01-17T07:32:53.680Z,1.30
2018-01-17T07:35:21.211Z,1.30
2018-01-17T07:37:49.590Z,1.50
2018-01-17T07:40:17.883Z,1.50
2018-01-17T07:42:45.387Z,1.50
2018-01-17T07:45:12.924Z,1.50
2018-01-17T07:47:40.403Z,1.50
2018-01-17T07:50:07.931Z,1.60
2018-01-17T07:52:35.491Z,1.60
2018-01-17T07:55:02.990Z,1.60
2018-01-17T07:57:30.519Z,1.60
2018-01-17T07:59:58.010Z,1.60
2018-01-17T08:02:25.556Z,1.60
2018-01-17T08:04:53.139Z,1.60
2018-01-17T08:07:20.703Z,1.60
2018-01-17T08:09:49.040Z,1.60
2018-01-17T08:12:16.579Z,1.60
2018-01-17T08:14:44.110Z,1.50
2018-01-17T08:17:12.380Z,1.50
2018-01-17T08:19:40.683Z,1.60
2018-01-17T08:22:08.153Z,1.50
2018-01-17T08:24:36.508Z,1.70
2018-01-17T08:27:04.821Z,1.70
2018-01-17T08:29:33.308Z,1.70
2018-01-17T08:32:00.887Z,1.70
2018-01-17T08:34:28.411Z,1.70
2018-01-17T08:36:55.994Z,1.70
2018-01-17T08:39:23.547Z,1.70
2018-01-17T08:41:51.143Z,1.70
2018-01-17T08:44:18.733Z,1.70
2018-01-17T08:46:46.277Z,1.70
2018-01-17T08:49:14.543Z,1.50
2018-01-17T08:51:42.074Z,1.50
2018-01-17T08:54:09.607Z,1.50
2018-01-17T08:56:37.111Z,1.50
2018-01-17T08:59:04.638Z,1.50
2018-01-17T09:01:32.146Z,1.60
2018-01-17T09:04:00.436Z,1.70
2018-01-17T09:06:28.698Z,1.70
2018-01-17T09:08:56.993Z,1.70
2018-01-17T09:11:25.254Z,1.80
2018-01-17T09:13:53.542Z,1.80
2018-01-17T09:16:21.807Z,1.80
2018-01-17T09:18:50.098Z,1.80
2018-01-17T09:21:18.358Z,1.80
2018-01-17T09:23:46.707Z,1.80
2018-01-17T09:26:14.219Z,1.80
2018-01-17T09:28:41.739Z,1.80
2018-01-17T09:31:09.267Z,1.80
2018-01-17T09:33:36.758Z,1.80
2018-01-17T09:36:04.323Z,1.80
2018-01-17T09:38:31.826Z,1.90
2018-01-17T09:40:59.360Z,2.00
2018-01-17T09:43:27.626Z,2.10
2018-01-17T09:45:55.922Z,2.20
2018-01-17T09:48:23.414Z,2.20
2018-01-17T09:50:50.934Z,2.30
2018-01-17T09:53:19.200Z,2.20
2018-01-17T09:55:47.482Z,2.20
2018-01-17T09:58:15.746Z,2.20
2018-01-17T10:00:44.039Z,2.30
2018-01-17T10:03:12.312Z,2.30
2018-01-17T10:05:40.600Z,2.40
2018-01-17T10:08:08.126Z,2.30
2018-01-17T10:10:35.696Z,2.40
2018-01-17T10:13:03.150Z,2.40
2018-01-17T10:15:30.638Z,2.40
2018-01-17T10:17:58.170Z,2.40
2018-01-17T10:20:26.466Z,2.30
2018-01-17T10:22:54.766Z,2.20
2018-01-17T10:25:22.262Z,2.20
2018-01-17T10:27:49.763Z,2.00
2018-01-17T10:30:18.053Z,1.80
2018-01-17T10:32:45.558Z,1.80
2018-01-17T10:35:13.086Z,1.80
2018-01-17T10:37:40.583Z,1.80
2018-01-17T10:40:08.108Z,1.90
2018-01-17T10:42:35.611Z,1.90
2018-01-17T10:45:03.915Z,2.00
2018-01-17T10:47:31.423Z,2.00
2018-01-17T10:49:59.708Z,1.90
2018-01-17T10:52:27.235Z,1.90
2018-01-17T10:54:54.730Z,1.80
2018-01-17T10:57:22.241Z,1.60
2018-01-17T10:59:49.766Z,1.50
2018-01-17T11:02:18.038Z,1.50
2018-01-17T11:04:46.328Z,1.50
2018-01-17T11:07:14.596Z,1.60
2018-01-17T11:09:42.890Z,1.70
2018-01-17T11:12:10.394Z,1.70
2018-01-17T11:14:37.926Z,1.70
2018-01-17T11:17:05.424Z,1.80
2018-01-17T11:19:32.930Z,1.80
2018-01-17T11:22:00.459Z,1.80
2018-01-17T11:24:27.920Z,1.90
2018-01-17T11:26:55.474Z,1.90
2018-01-17T11:29:22.979Z,2.00
2018-01-17T11:31:50.506Z,2.10
2018-01-17T11:34:18.777Z,2.20
2018-01-17T11:36:47.079Z,2.20
2018-01-17T11:39:14.582Z,2.10
2018-01-17T11:41:42.084Z,2.20
2018-01-17T11:44:10.370Z,2.30
2018-01-17T11:46:37.906Z,2.30
2018-01-17T11:49:06.176Z,2.40
2018-01-17T11:51:34.446Z,2.40
2018-01-17T11:54:02.085Z,2.40
2018-01-17T11:56:29.599Z,2.50
2018-01-17T11:58:57.108Z,2.50
2018-01-17T12:01:24.647Z,2.60
2018-01-17T12:03:52.147Z,2.50
2018-01-17T12:06:19.649Z,2.50
2018-01-17T12:08:47.171Z,2.60
2018-01-17T12:11:15.435Z,2.60
2018-01-17T12:13:42.966Z,2.60
2018-01-17T12:16:10.477Z,2.70
2018-01-17T12:18:38.771Z,2.80
2018-01-17T12:21:06.313Z,2.80
2018-01-17T12:23:34.621Z,2.90
2018-01-17T12:26:02.123Z,2.90
2018-01-17T12:28:29.734Z,3.00
2018-01-17T12:30:57.234Z,3.00
2018-01-17T12:33:24.740Z,3.10
2018-01-17T12:35:52.267Z,3.10
2018-01-17T12:38:19.770Z,3.20
2018-01-17T12:40:47.311Z,3.20
2018-01-17T12:43:15.580Z,3.30
2018-01-17T12:45:43.868Z,3.30
2018-01-17T12:48:11.378Z,3.30
2018-01-17T12:50:38.903Z,3.40
2018-01-17T12:53:06.411Z,3.40
2018-01-17T12:55:33.948Z,3.50
2018-01-17T12:58:01.446Z,3.50
2018-01-17T13:00:29.718Z,3.40
2018-01-17T13:02:58.018Z,3.50
2018-01-17T13:05:25.520Z,3.50
2018-01-17T13:07:53.023Z,3.50
2018-01-17T13:10:21.321Z,3.50
2018-01-17T13:12:49.219Z,3.50
2018-01-17T13:15:16.750Z,3.40
2018-01-17T13:17:44.258Z,3.50
2018-01-17T13:20:11.793Z,3.60
2018-01-17T13:22:39.298Z,3.60
2018-01-17T13:25:07.577Z,3.60
2018-01-17T13:27:35.150Z,3.60
2018-01-17T13:30:02.674Z,3.60
2018-01-17T13:32:30.203Z,3.60
2018-01-17T13:34:57.828Z,3.60
2018-01-17T13:37:25.330Z,3.70
2018-01-17T13:39:52.833Z,3.60
2018-01-17T13:42:21.088Z,3.50
2018-01-17T13:44:49.382Z,3.60
2018-01-17T13:47:17.670Z,3.50
2018-01-17T13:49:45.958Z,3.50
2018-01-17T13:52:13.470Z,3.50
2018-01-17T13:54:41.000Z,3.40
2018-01-17T13:57:08.499Z,3.30
2018-01-17T13:59:36.023Z,3.20
2018-01-17T14:02:03.486Z,3.10
2018-01-17T14:04:31.039Z,3.10
2018-01-17T14:06:58.562Z,3.10
2018-01-17T14:09:26.826Z,3.20
2018-01-17T14:11:55.115Z,3.20
2018-01-17T14:14:23.386Z,3.30
2018-01-17T14:16:51.684Z,3.30
2018-01-17T14:19:19.210Z,3.30
2018-01-17T14:21:47.473Z,3.50
2018-01-17T14:24:15.015Z,3.40
2018-01-17T14:26:42.543Z,3.60
2018-01-17T14:29:10.074Z,3.60
2018-01-17T14:31:38.338Z,3.60
2018-01-17T14:34:06.635Z,3.60
2018-01-17T14:36:34.894Z,3.60
2018-01-17T14:39:03.188Z,3.60
2018-01-17T14:41:31.483Z,3.70
2018-01-17T14:43:58.988Z,3.60
2018-01-17T14:46:26.495Z,3.70
2018-01-17T14:48:54.071Z,3.80
2018-01-17T14:51:21.643Z,3.80
2018-01-17T14:53:49.195Z,3.90
2018-01-17T14:56:16.710Z,3.80
2018-01-17T14:58:47.313Z,3.80
2018-01-17T15:01:14.838Z,3.80
2018-01-17T15:03:42.368Z,3.70
2018-01-17T15:06:10.592Z,3.70
2018-01-17T15:08:39.951Z,3.60
2018-01-17T15:11:07.455Z,3.70
2018-01-17T15:13:34.980Z,3.70
2018-01-17T15:16:02.502Z,3.70
2018-01-17T15:18:30.792Z,3.70
2018-01-17T15:20:59.068Z,3.60
2018-01-17T15:23:27.405Z,3.70
2018-01-17T15:25:54.939Z,3.70
2018-01-17T15:28:22.528Z,3.70
2018-01-17T15:30:50.063Z,3.70
2018-01-17T15:33:17.575Z,3.70
2018-01-17T15:35:45.868Z,3.80
2018-01-17T15:38:14.135Z,3.80
2018-01-17T15:40:42.438Z,3.90
2018-01-17T15:43:12.837Z,3.80
2018-01-17T15:45:41.131Z,3.70
2018-01-17T15:48:08.646Z,3.70
2018-01-17T15:50:36.171Z,3.70
2018-01-17T15:53:03.667Z,3.70
2018-01-17T15:55:31.192Z,3.80
2018-01-17T15:57:58.694Z,3.80
2018-01-17T16:00:26.223Z,3.80
2018-01-17T16:02:53.723Z,3.80
2018-01-17T16:05:21.995Z,4.00
2018-01-17T16:07:51.235Z,4.00
2018-01-17T16:10:18.735Z,4.00
2018-01-17T16:12:46.272Z,4.00
2018-01-17T16:15:14.693Z,4.00
2018-01-17T16:17:43.015Z,3.80
2018-01-17T16:20:10.517Z,3.80
2018-01-17T16:22:38.221Z,3.70
2018-01-17T16:25:05.914Z,3.70
2018-01-17T16:27:33.418Z,3.70
2018-01-17T16:30:01.762Z,3.70
2018-01-17T16:32:29.304Z,3.70
2018-01-17T16:34:56.828Z,3.70
2018-01-17T16:37:25.163Z,3.70
2018-01-17T16:39:52.726Z,3.70
2018-01-17T16:42:20.283Z,3.70
2018-01-17T16:44:47.848Z,3.70
2018-01-17T16:47:15.379Z,3.70
2018-01-17T16:49:42.875Z,3.70
2018-01-17T16:52:10.381Z,3.80
2018-01-17T16:54:37.914Z,3.80
2018-01-17T16:57:06.878Z,3.80
2018-01-17T16:59:34.393Z,3.80
2018-01-17T17:02:01.923Z,3.80
2018-01-17T17:04:30.180Z,4.00
2018-01-17T17:06:57.703Z,4.00
2018-01-17T17:09:25.254Z,4.10
2018-01-17T17:11:52.779Z,4.20
2018-01-17T17:14:21.047Z,4.30
2018-01-17T17:16:49.344Z,4.30
2018-01-17T17:19:16.853Z,4.30
2018-01-17T17:21:44.484Z,4.30
2018-01-17T17:24:11.984Z,4.30
2018-01-17T17:26:39.495Z,4.40
2018-01-17T17:29:07.023Z,4.40
2018-01-17T17:31:35.291Z,4.40
2018-01-17T17:34:02.820Z,4.40
2018-01-17T17:36:30.319Z,4.40
2018-01-17T17:38:58.614Z,4.40
2018-01-17T17:41:26.126Z,4.30
2018-01-17T17:43:53.650Z,4.30
2018-01-17T17:46:21.149Z,4.40
2018-01-17T17:48:48.676Z,4.40
2018-01-17T17:51:16.204Z,4.30
2018-01-17T17:53:43.702Z,4.30
2018-01-17T17:56:11.237Z,4.30
2018-01-17T17:58:38.735Z,4.30
2018-01-17T18:01:06.238Z,4.20
2018-01-17T18:03:33.783Z,4.30
2018-01-17T18:06:02.063Z,4.30
2018-01-17T18:08:30.331Z,4.20
2018-01-17T18:10:58.634Z,4.30
2018-01-17T18:13:26.146Z,4.30
2018-01-17T18:15:53.652Z,4.30
2018-01-17T18:18:21.182Z,4.20
2018-01-17T18:20:49.475Z,4.10
2018-01-17T18:23:17.774Z,4.10
2018-01-17T18:25:45.288Z,4.10
2018-01-17T18:28:12.820Z,4.10
2018-01-17T18:30:40.347Z,4.10
2018-01-17T18:33:07.855Z,4.10
2018-01-17T18:35:35.385Z,4.10
2018-01-17T18:38:02.890Z,4.10
2018-01-17T18:40:31.186Z,4.10
2018-01-17T18:42:58.687Z,4.10
2018-01-17T18:45:26.218Z,4.10
2018-01-17T18:47:53.744Z,4.10
2018-01-17T18:50:22.012Z,4.20
2018-01-17T18:52:49.541Z,4.20
2018-01-17T18:55:17.041Z,4.10
2018-01-17T18:57:45.335Z,4.20
2018-01-17T19:00:12.873Z,4.20
2018-01-17T19:02:41.170Z,4.20
2018-01-17T19:05:09.454Z,4.20
2018-01-17T19:07:36.964Z,4.20
2018-01-17T19:10:04.494Z,4.20
2018-01-17T19:12:31.996Z,4.30
2018-01-17T19:14:59.530Z,4.30
2018-01-17T19:17:27.033Z,4.30
2018-01-17T19:19:55.308Z,4.40
2018-01-17T19:22:23.602Z,4.40
2018-01-17T19:24:51.106Z,4.40
2018-01-17T19:27:18.634Z,4.40
2018-01-17T19:29:46.806Z,4.40
2018-01-17T19:32:14.307Z,4.40
2018-01-17T19:34:41.838Z,4.40
2018-01-17T19:37:10.105Z,4.50
2018-01-17T19:39:39.523Z,4.50
2018-01-17T19:42:07.110Z,4.50
2018-01-17T19:44:34.612Z,4.50
2018-01-17T19:47:02.151Z,4.60
2018-01-17T19:49:30.421Z,4.50
2018-01-17T19:51:58.715Z,4.50
2018-01-17T19:54:26.979Z,4.50
2018-01-17T19:56:55.273Z,4.50
2018-01-17T19:59:22.732Z,4.50
2018-01-17T20:01:50.305Z,4.60
2018-01-17T20:04:17.835Z,4.60
2018-01-17T20:06:46.126Z,4.50
2018-01-17T20:09:13.650Z,4.50
2018-01-17T20:11:41.174Z,4.50
2018-01-17T20:14:08.672Z,4.50
2018-01-17T20:16:36.200Z,4.40
2018-01-17T20:19:03.698Z,4.40
2018-01-17T20:21:31.990Z,4.30
2018-01-17T20:23:59.514Z,4.30
2018-01-17T20:26:27.054Z,4.30
2018-01-17T20:28:54.564Z,4.30
2018-01-17T20:31:22.107Z,4.30
2018-01-17T20:33:49.630Z,4.20
2018-01-17T20:36:17.162Z,4.20
2018-01-17T20:38:44.688Z,4.30
2018-01-17T20:41:12.992Z,4.30
2018-01-17T20:43:40.506Z,4.30
2018-01-17T20:46:08.040Z,4.20
2018-01-17T20:48:35.541Z,4.20
2018-01-17T20:51:03.817Z,4.20
2018-01-17T20:53:31.358Z,4.10
2018-01-17T20:55:58.859Z,4.20
2018-01-17T20:58:26.351Z,4.30
2018-01-17T21:00:53.874Z,4.30
2018-01-17T21:03:22.144Z,4.40
2018-01-17T21:05:50.436Z,4.40
2018-01-17T21:08:17.947Z,4.30
2018-01-17T21:10:45.471Z,4.40
2018-01-17T21:13:12.971Z,4.40
2018-01-17T21:15:40.498Z,4.40
2018-01-17T21:18:07.996Z,4.40
2018-01-17T21:20:35.536Z,4.40
2018-01-17T21:23:03.038Z,4.40
2018-01-17T21:25:30.543Z,4.40
2018-01-17T21:27:58.072Z,4.40
2018-01-17T21:30:25.600Z,4.40
2018-01-17T21:32:53.871Z,4.30
2018-01-17T21:35:22.162Z,4.30
2018-01-17T21:37:49.715Z,4.30
2018-01-17T21:40:18.010Z,4.30
2018-01-17T21:42:51.286Z,4.30
2018-01-17T21:45:25.374Z,4.30
2018-01-17T21:47:52.866Z,4.30
2018-01-17T21:50:21.155Z,4.30
2018-01-17T21:52:48.657Z,4.30
2018-01-17T21:55:16.183Z,4.30
2018-01-17T21:57:43.680Z,4.30
2018-01-17T22:00:11.204Z,4.40
2018-01-17T22:02:38.703Z,4.30
2018-01-17T22:05:06.230Z,4.30
2018-01-17T22:07:33.732Z,4.40
2018-01-17T22:10:01.268Z,4.40
2018-01-17T22:12:28.772Z,4.30
2018-01-17T22:14:57.034Z,4.30
2018-01-17T22:17:25.331Z,4.30
2018-01-17T22:19:52.834Z,4.30
2018-01-17T22:22:20.367Z,4.30
2018-01-17T22:24:47.867Z,4.30
2018-01-17T22:27:15.366Z,4.30
2018-01-17T22:29:42.900Z,4.30
2018-01-17T22:32:11.170Z,4.30
2018-01-17T22:34:39.490Z,4.30
2018-01-17T22:37:07.000Z,4.30
2018-01-17T22:39:34.523Z,4.40
2018-01-17T22:42:02.052Z,4.40
2018-01-17T22:44:30.323Z,4.30
2018-01-17T22:46:58.597Z,4.30
2018-01-17T22:49:26.894Z,4.20
2018-01-17T22:51:54.403Z,4.20
2018-01-17T22:54:21.932Z,4.20
2018-01-17T22:56:49.424Z,4.20
2018-01-17T22:59:17.783Z,4.20
2018-01-17T23:01:45.308Z,4.20
2018-01-17T23:04:12.818Z,4.20
2018-01-17T23:06:40.343Z,4.20
2018-01-17T23:09:07.842Z,4.20
2018-01-17T23:11:35.373Z,4.20
2018-01-17T23:14:02.895Z,4.20
2018-01-17T23:16:30.395Z,4.20
2018-01-17T23:18:57.918Z,4.20
2018-01-17T23:21:25.413Z,4.20
2018-01-17T23:23:52.947Z,4.20
2018-01-17T23:26:20.445Z,4.20
2018-01-17T23:28:47.948Z,4.20
2018-01-17T23:31:15.467Z,4.20
2018-01-17T23:33:42.970Z,4.20
2018-01-17T23:36:10.501Z,4.10
2018-01-17T23:38:38.768Z,4.10
2018-01-17T23:41:06.286Z,4.10
2018-01-17T23:43:33.807Z,4.10
2018-01-17T23:46:02.109Z,4.10
2018-01-17T23:48:29.609Z,4.10
2018-01-17T23:50:57.104Z,4.10
2018-01-17T23:53:25.391Z,4.10
2018-01-17T23:55:52.886Z,4.00
2018-01-17T23:58:20.421Z,4.00
